createdAt,value
2018-01-02T13:20:31.354Z,3.13
2018-01-02T13:22:58.129Z,3.30
2018-01-02T13:25:24.893Z,2.63
2018-01-02T13:27:51.708Z,3.37
2018-01-02T13:30:18.500Z,3.63
2018-01-02T13:32:45.244Z,3.90
2018-01-02T13:35:12.057Z,3.63
2018-01-02T13:37:38.822Z,3.37
2018-01-02T13:40:05.567Z,3.70
2018-01-02T13:42:32.383Z,2.53
2018-01-02T13:44:59.179Z,3.63
2018-01-02T13:47:25.950Z,3.50
2018-01-02T13:49:52.734Z,2.73
2018-01-02T13:52:19.504Z,4.40
2018-01-02T13:54:46.309Z,3.10
2018-01-02T13:57:13.114Z,2.80
2018-01-02T13:59:39.906Z,3.37
2018-01-02T14:02:06.672Z,4.30
2018-01-02T14:04:33.481Z,2.97
2018-01-02T14:07:00.278Z,2.60
2018-01-02T14:09:27.255Z,3.43
2018-01-02T14:11:54.070Z,3.00
2018-01-02T14:14:20.858Z,3.17
2018-01-02T14:16:47.651Z,2.80
2018-01-02T14:19:14.439Z,2.70
2018-01-02T14:21:41.233Z,2.57
2018-01-02T14:24:07.990Z,2.20
2018-01-02T14:26:34.766Z,3.40
2018-01-02T14:29:01.530Z,2.90
2018-01-02T14:31:28.779Z,3.20
2018-01-02T14:33:55.577Z,2.97
2018-01-02T14:36:22.329Z,4.17
2018-01-02T14:38:49.117Z,3.00
2018-01-02T14:41:15.929Z,2.37
2018-01-02T14:43:42.690Z,2.70
2018-01-02T14:46:09.521Z,1.97
2018-01-02T14:48:36.333Z,1.67
2018-01-02T14:51:03.091Z,3.27
2018-01-02T14:53:29.853Z,2.63
2018-01-02T14:55:56.669Z,3.10
2018-01-02T14:58:23.457Z,3.00
2018-01-02T15:00:50.469Z,4.07
2018-01-02T15:03:17.303Z,2.93
2018-01-02T15:05:44.070Z,2.90
2018-01-02T15:08:10.848Z,2.17
2018-01-02T15:10:37.708Z,2.37
2018-01-02T15:13:04.461Z,2.70
2018-01-02T15:15:31.270Z,2.20
2018-01-02T15:17:58.100Z,1.87
2018-01-02T15:20:24.854Z,2.10
2018-01-02T15:22:51.637Z,2.60
2018-01-02T15:25:18.781Z,2.40
2018-01-02T15:27:45.572Z,2.13
2018-01-02T15:30:12.348Z,2.83
2018-01-02T15:32:39.186Z,2.40
2018-01-02T15:35:05.953Z,1.80
2018-01-02T15:37:32.736Z,1.97
2018-01-02T15:39:59.562Z,1.83
2018-01-02T15:42:26.513Z,2.97
2018-01-02T15:44:53.274Z,2.13
2018-01-02T15:47:20.074Z,1.73
2018-01-02T15:49:46.841Z,1.50
2018-01-02T15:52:13.599Z,1.30
2018-01-02T15:54:40.367Z,1.77
2018-01-02T15:57:07.114Z,1.40
2018-01-02T15:59:33.913Z,1.73
2018-01-02T16:02:00.705Z,2.00
2018-01-02T16:04:27.461Z,1.77
2018-01-02T16:06:54.209Z,3.33
2018-01-02T16:09:20.990Z,1.80
2018-01-02T16:11:47.748Z,2.37
2018-01-02T16:14:14.522Z,1.57
2018-01-02T16:16:41.294Z,2.23
2018-01-02T16:19:08.061Z,1.90
2018-01-02T16:21:34.817Z,2.10
2018-01-02T16:24:01.594Z,3.10
2018-01-02T16:26:28.364Z,1.90
2018-01-02T16:28:55.110Z,1.80
2018-01-02T16:31:21.997Z,2.70
2018-01-02T16:33:48.737Z,1.83
2018-01-02T16:36:15.482Z,2.30
2018-01-02T16:38:42.262Z,1.50
2018-01-02T16:41:09.002Z,1.63
2018-01-02T16:43:35.746Z,1.73
2018-01-02T16:46:02.549Z,1.90
2018-01-02T16:48:29.370Z,1.30
2018-01-02T16:50:56.146Z,2.17
2018-01-02T16:53:22.955Z,2.20
2018-01-02T16:55:49.750Z,2.97
2018-01-02T16:58:16.548Z,1.30
2018-01-02T17:00:43.332Z,2.10
2018-01-02T17:03:10.087Z,2.50
2018-01-02T17:05:36.854Z,1.40
2018-01-02T17:08:03.653Z,2.50
2018-01-02T17:10:30.404Z,1.80
2018-01-02T17:12:57.154Z,1.93
2018-01-02T17:15:23.933Z,3.30
2018-01-02T17:17:50.679Z,1.57
2018-01-02T17:20:17.434Z,2.37
2018-01-02T17:22:44.242Z,2.00
2018-01-02T17:25:11.002Z,1.83
2018-01-02T17:27:37.762Z,2.23
2018-01-02T17:30:04.541Z,0.57
2018-01-02T17:32:31.334Z,2.60
2018-01-02T17:34:58.105Z,1.67
2018-01-02T17:37:24.914Z,2.73
2018-01-02T17:39:51.667Z,2.20
2018-01-02T17:42:18.427Z,2.50
2018-01-02T17:44:45.223Z,2.17
2018-01-02T17:47:12.005Z,2.77
2018-01-02T17:49:38.788Z,3.37
2018-01-02T17:52:05.596Z,2.73
2018-01-02T17:54:32.352Z,3.60
2018-01-02T17:56:59.162Z,3.43
2018-01-02T17:59:25.986Z,3.40
2018-01-02T18:01:52.742Z,4.13
2018-01-02T18:04:19.529Z,4.13
2018-01-02T18:06:46.338Z,3.90
2018-01-02T18:09:13.109Z,6.20
2018-01-02T18:11:39.889Z,6.17
2018-01-02T18:14:06.674Z,4.80
2018-01-02T18:16:33.430Z,5.37
2018-01-02T18:19:00.520Z,5.80
2018-01-02T18:21:27.305Z,6.03
2018-01-02T18:23:54.082Z,4.30
2018-01-02T18:26:20.877Z,7.53
2018-01-02T18:28:47.685Z,4.73
2018-01-02T18:31:14.439Z,5.47
2018-01-02T18:33:41.213Z,6.67
2018-01-02T18:36:08.017Z,5.67
2018-01-02T18:38:34.775Z,4.37
2018-01-02T18:41:01.602Z,5.23
2018-01-02T18:43:28.408Z,4.10
2018-01-02T18:45:55.162Z,5.10
2018-01-02T18:48:21.918Z,5.20
2018-01-02T18:50:48.734Z,5.67
2018-01-02T18:53:15.490Z,5.30
2018-01-02T18:55:42.257Z,4.20
2018-01-02T18:58:09.026Z,5.20
2018-01-02T19:00:35.829Z,4.83
2018-01-02T19:03:02.613Z,5.33
2018-01-02T19:05:29.482Z,5.40
2018-01-02T19:07:56.274Z,5.30
2018-01-02T19:10:23.035Z,4.87
2018-01-02T19:12:49.816Z,5.20
2018-01-02T19:15:16.581Z,4.43
2018-01-02T19:17:43.383Z,3.47
2018-01-02T19:20:10.200Z,4.77
2018-01-02T19:22:36.988Z,3.00
2018-01-02T19:25:03.733Z,4.13
2018-01-02T19:27:30.520Z,4.60
2018-01-02T19:29:57.284Z,3.80
2018-01-02T19:32:24.066Z,4.27
2018-01-02T19:34:51.768Z,3.37
2018-01-02T19:37:18.542Z,3.30
2018-01-02T19:39:45.282Z,3.47
2018-01-02T19:42:12.114Z,4.23
2018-01-02T19:44:38.893Z,3.43
2018-01-02T19:47:05.677Z,4.23
2018-01-02T19:49:32.446Z,4.23
2018-01-02T19:51:59.213Z,3.00
2018-01-02T19:54:25.974Z,4.20
2018-01-02T19:56:52.774Z,3.07
2018-01-02T19:59:19.537Z,4.10
2018-01-02T20:01:46.305Z,3.60
2018-01-02T20:04:13.139Z,4.10
2018-01-02T20:06:39.914Z,4.60
2018-01-02T20:09:06.708Z,3.40
2018-01-02T20:11:33.506Z,3.00
2018-01-02T20:14:00.273Z,3.00
2018-01-02T20:16:27.026Z,3.90
2018-01-02T20:18:53.859Z,4.60
2018-01-02T20:21:20.605Z,3.40
2018-01-02T20:23:47.389Z,3.30
2018-01-02T20:26:14.178Z,3.67
2018-01-02T20:28:40.927Z,4.90
2018-01-02T20:31:07.702Z,4.30
2018-01-02T20:33:34.522Z,5.00
2018-01-02T20:36:01.276Z,5.95
2018-01-02T20:38:28.151Z,5.80
2018-01-02T20:40:54.943Z,6.73
2018-01-02T20:43:21.724Z,7.00
2018-01-02T20:45:48.557Z,6.70
2018-01-02T20:48:15.331Z,7.00
2018-01-02T20:50:42.405Z,7.17
2018-01-02T20:53:09.255Z,7.90
2018-01-02T20:55:36.103Z,8.30
2018-01-02T20:58:02.883Z,6.40
2018-01-02T21:00:29.769Z,7.50
2018-01-02T21:02:56.687Z,7.20
2018-01-02T21:05:23.457Z,6.70
2018-01-02T21:07:50.223Z,7.63
2018-01-02T21:10:17.049Z,7.70
2018-01-02T21:12:43.786Z,7.53
2018-01-02T21:15:10.630Z,8.80
2018-01-02T21:17:37.434Z,10.13
2018-01-02T21:20:04.213Z,10.03
2018-01-02T21:22:30.975Z,8.20
2018-01-02T21:24:57.817Z,9.10
2018-01-02T21:27:24.623Z,8.83
2018-01-02T21:29:51.401Z,11.17
2018-01-02T21:32:18.202Z,9.60
2018-01-02T21:34:44.988Z,12.13
2018-01-02T21:37:11.781Z,11.55
2018-01-02T21:39:38.604Z,9.87
2018-01-02T21:42:05.370Z,9.77
2018-01-02T21:44:32.154Z,10.17
2018-01-02T21:46:58.924Z,9.50
2018-01-02T21:49:25.703Z,10.03
2018-01-02T21:51:52.479Z,9.43
2018-01-02T21:54:19.283Z,8.80
2018-01-02T21:56:46.053Z,7.37
2018-01-02T21:59:12.854Z,9.10
2018-01-02T22:01:39.668Z,10.33
2018-01-02T22:04:06.428Z,9.90
2018-01-02T22:06:33.207Z,9.70
2018-01-02T22:09:00.008Z,10.20
2018-01-02T22:11:26.747Z,9.77
2018-01-02T22:13:53.497Z,8.57
2018-01-02T22:16:20.303Z,10.50
2018-01-02T22:18:47.092Z,9.43
2018-01-02T22:21:13.859Z,9.80
2018-01-02T22:23:40.713Z,10.70
2018-01-02T22:26:07.496Z,8.93
2018-01-02T22:28:34.242Z,8.47
2018-01-02T22:31:01.049Z,10.23
2018-01-02T22:33:27.810Z,7.43
2018-01-02T22:35:54.672Z,9.10
2018-01-02T22:38:22.109Z,10.30
2018-01-02T22:40:48.862Z,9.97
2018-01-02T22:43:15.632Z,7.63
2018-01-02T22:45:42.460Z,8.47
2018-01-02T22:48:09.237Z,11.17
2018-01-02T22:50:36.047Z,9.40
2018-01-02T22:53:02.875Z,6.17
2018-01-02T22:55:29.647Z,9.10
2018-01-02T22:57:56.414Z,11.20
2018-01-02T23:00:23.221Z,9.30
2018-01-02T23:02:49.989Z,9.47
2018-01-02T23:05:16.742Z,10.57
2018-01-02T23:07:43.547Z,9.30
2018-01-02T23:10:10.308Z,9.33
2018-01-02T23:12:37.047Z,12.17
2018-01-02T23:15:03.857Z,10.70
2018-01-02T23:17:30.637Z,10.30
2018-01-02T23:19:57.408Z,7.47
2018-01-02T23:22:24.197Z,10.33
2018-01-02T23:24:50.960Z,3.50
2018-01-02T23:27:17.733Z,7.50
2018-01-02T23:29:44.541Z,10.80
2018-01-02T23:32:11.293Z,9.73
2018-01-02T23:34:38.049Z,9.80
